Time;durP1;ratioP1;P1;durP2;ratioP2;P2;SDS_P1;SDS_P2;PMS_P1;PMS_P2;Temp;Humidity;BMP_temperature;BMP_pressure;BME280_temperature;BME280_humidity;BME280_pressure;Samples;Min_cycle;Max_cycle;Signal;HPM_P1;HPM_P2
2024/02/11 00:01:54;;;;;;;6.20;5.33;;;;;;;;;;6228911;23;20936;-88
2024/02/11 00:04:29;;;;;;;5.70;5.03;;;;;;;;;;6228686;23;20766;-87
2024/02/11 00:07:05;;;;;;;5.93;5.17;;;;;;;;;;6231955;23;20401;-88
2024/02/11 00:09:32;;;;;;;5.90;5.13;;;;;;;;;;6236117;23;20775;-88
2024/02/11 00:12:00;;;;;;;7.47;6.60;;;;;;;;;;6234028;23;20436;-88
2024/02/11 00:14:27;;;;;;;6.20;5.60;;;;;;;;;;6258688;23;20420;-88
2024/02/11 00:16:59;;;;;;;7.00;6.30;;;;;;;;;;6231186;23;20404;-88
2024/02/11 00:19:27;;;;;;;7.00;6.37;;;;;;;;;;6230740;23;20470;-88
2024/02/11 00:21:56;;;;;;;8.50;6.40;;;;;;;;;;6232708;23;20412;-89
2024/02/11 00:24:29;;;;;;;6.30;5.70;;;;;;;;;;6227779;23;20408;-88
2024/02/11 00:26:57;;;;;;;5.40;4.90;;;;;;;;;;6227807;23;20408;-89
2024/02/11 00:29:24;;;;;;;8.00;7.10;;;;;;;;;;6226909;23;20432;-89
2024/02/11 00:31:51;;;;;;;7.50;6.60;;;;;;;;;;6225866;23;20419;-89
2024/02/11 00:34:24;;;;;;;6.73;6.03;;;;;;;;;;6226739;23;20404;-87
2024/02/11 00:36:57;;;;;;;8.00;6.70;;;;;;;;;;6227828;23;20415;-88
2024/02/11 00:39:27;;;;;;;7.03;6.17;;;;;;;;;;6225140;23;20997;-88
2024/02/11 00:41:54;;;;;;;6.90;6.17;;;;;;;;;;6225478;23;20480;-88
2024/02/11 00:44:21;;;;;;;11.00;7.13;;;;;;;;;;6225460;23;20420;-88
2024/02/11 00:46:50;;;;;;;7.90;6.43;;;;;;;;;;6224288;23;21234;-88
2024/02/11 00:49:18;;;;;;;7.03;6.20;;;;;;;;;;6224617;23;20427;-87
2024/02/11 00:51:45;;;;;;;8.07;6.40;;;;;;;;;;6223978;23;20483;-87
2024/02/11 00:54:13;;;;;;;9.33;6.70;;;;;;;;;;6225364;23;20423;-88
2024/02/11 00:56:41;;;;;;;7.67;5.83;;;;;;;;;;6223463;23;20897;-87
2024/02/11 00:59:10;;;;;;;8.73;6.87;;;;;;;;;;6223826;23;20437;-88
2024/02/11 01:01:40;;;;;;;7.33;6.63;;;;;;;;;;6221779;23;20431;-88
2024/02/11 01:04:11;;;;;;;8.47;6.90;;;;;;;;;;6223939;23;20409;-88
2024/02/11 01:06:43;;;;;;;6.43;5.90;;;;;;;;;;6254695;23;20412;-88
2024/02/11 01:09:11;;;;;;;6.70;6.10;;;;;;;;;;6225796;23;20451;-87
2024/02/11 01:11:38;;;;;;;7.33;6.60;;;;;;;;;;6199782;23;20756;-88
2024/02/11 01:14:07;;;;;;;7.17;6.47;;;;;;;;;;6223443;23;20416;-88
2024/02/11 01:16:38;;;;;;;7.67;6.33;;;;;;;;;;6222889;23;20409;-89
2024/02/11 01:19:15;;;;;;;6.73;6.13;;;;;;;;;;6226050;23;20519;-88
2024/02/11 01:22:00;;;;;;;8.30;6.10;;;;;;;;;;6224459;23;20401;-88
2024/02/11 01:24:34;;;;;;;6.93;6.23;;;;;;;;;;6250301;23;20411;-87
2024/02/11 01:27:04;;;;;;;8.53;6.70;;;;;;;;;;6229194;23;20442;-88
2024/02/11 01:29:31;;;;;;;7.77;6.97;;;;;;;;;;6257169;23;20432;-88
2024/02/11 01:31:59;;;;;;;7.83;7.03;;;;;;;;;;6258965;23;20428;-88
2024/02/11 01:34:27;;;;;;;6.83;6.20;;;;;;;;;;6229864;23;20397;-88
2024/02/11 01:36:55;;;;;;;6.70;5.33;;;;;;;;;;6233025;23;20408;-89
2024/02/11 01:39:22;;;;;;;7.07;6.03;;;;;;;;;;6243153;23;20459;-88
2024/02/11 01:42:23;;;;;;;7.80;6.60;;;;;;;;;;6231064;23;20399;-88
2024/02/11 01:45:23;;;;;;;7.13;5.47;;;;;;;;;;6230641;23;20417;-88
2024/02/11 01:48:01;;;;;;;5.63;5.13;;;;;;;;;;6235305;22;20438;-90
2024/02/11 01:50:44;;;;;;;7.07;6.47;;;;;;;;;;6245437;22;20416;-89
2024/02/11 01:53:38;;;;;;;5.70;5.07;;;;;;;;;;6249446;22;20412;-88
2024/02/11 01:56:25;;;;;;;;;;;;;;;;;;;;;
2024/02/11 01:58:53;;;;;;;8.47;6.03;;;;;;;;;;6273578;22;20444;-88
2024/02/11 02:01:21;;;;;;;8.50;5.50;;;;;;;;;;6263907;22;20771;-88
2024/02/11 02:03:51;;;;;;;9.67;5.73;;;;;;;;;;6225419;23;20420;-88
2024/02/11 02:06:24;;;;;;;7.20;5.90;;;;;;;;;;6225987;23;20409;-88
2024/02/11 02:08:52;;;;;;;6.40;5.80;;;;;;;;;;6225507;23;20412;-88
2024/02/11 02:11:21;;;;;;;6.37;5.70;;;;;;;;;;6224866;23;20802;-87
2024/02/11 02:13:49;;;;;;;7.37;5.70;;;;;;;;;;6250772;23;20409;-87
2024/02/11 02:16:17;;;;;;;7.30;6.17;;;;;;;;;;6225437;23;20476;-88
2024/02/11 02:18:49;;;;;;;5.97;5.43;;;;;;;;;;6224382;23;20448;-88
2024/02/11 02:21:30;;;;;;;;;;;;;;;;;;;;;
2024/02/11 02:24:03;;;;;;;7.40;6.10;;;;;;;;;;6252762;23;20412;-88
2024/02/11 02:26:30;;;;;;;6.87;6.07;;;;;;;;;;6252318;23;20435;-88
2024/02/11 02:28:57;;;;;;;6.40;5.80;;;;;;;;;;6250877;23;20427;-88
2024/02/11 02:31:29;;;;;;;6.97;6.27;;;;;;;;;;6249563;23;20460;-88
2024/02/11 02:34:10;;;;;;;6.73;6.03;;;;;;;;;;6222606;23;20419;-88
2024/02/11 02:36:52;;;;;;;8.13;6.30;;;;;;;;;;6226802;23;20420;-88
2024/02/11 02:39:31;;;;;;;6.20;5.63;;;;;;;;;;6223149;23;20441;-88
2024/02/11 02:42:23;;;;;;;8.23;6.13;;;;;;;;;;6236443;23;20416;-87
2024/02/11 02:45:06;;;;;;;6.83;5.77;;;;;;;;;;6249310;23;20416;-88
2024/02/11 02:47:53;;;;;;;7.73;5.83;;;;;;;;;;6222874;23;20400;-87
2024/02/11 02:50:50;;;;;;;8.20;6.07;;;;;;;;;;6239980;22;20435;-89
2024/02/11 02:53:34;;;;;;;7.13;6.10;;;;;;;;;;6238019;22;20457;-87
2024/02/11 02:56:36;;;;;;;6.10;5.50;;;;;;;;;;6226010;23;20392;-88
2024/02/11 02:59:44;;;;;;;6.37;5.77;;;;;;;;;;6222032;23;20471;-87
2024/02/11 03:02:27;;;;;;;7.00;5.90;;;;;;;;;;6155081;23;20505;-86
2024/02/11 03:05:18;;;;;;;;;;;;;;;;;;;;;
2024/02/11 03:08:30;;;;;;;7.33;6.17;;;;;;;;;;6125579;23;20394;-88
2024/02/11 03:11:09;;;;;;;8.57;5.60;;;;;;;;;;6149717;23;20428;-87
2024/02/11 03:14:20;;;;;;;5.73;5.23;;;;;;;;;;6218767;23;20408;-88
2024/02/11 03:17:09;;;;;;;5.67;5.10;;;;;;;;;;6218398;23;20431;-88
2024/02/11 03:20:01;;;;;;;9.07;6.10;;;;;;;;;;6226125;23;20463;-88
2024/02/11 03:22:48;;;;;;;6.50;5.90;;;;;;;;;;6223743;23;20730;-89
2024/02/11 03:25:50;;;;;;;;;;;;;;;;;;;;;
2024/02/11 03:28:49;;;;;;;6.50;5.20;;;;;;;;;;6249659;23;20366;-88
2024/02/11 03:31:43;;;;;;;7.03;5.97;;;;;;;;;;6231958;22;20433;-90
2024/02/11 03:34:37;;;;;;;6.20;5.60;;;;;;;;;;6232950;22;20421;-88
2024/02/11 03:37:33;;;;;;;6.00;5.47;;;;;;;;;;6213354;23;20404;-88
2024/02/11 03:40:29;;;;;;;6.57;5.47;;;;;;;;;;6222516;23;20455;-88
2024/02/11 03:43:11;;;;;;;6.33;5.60;;;;;;;;;;6220866;23;20423;-89
2024/02/11 03:49:07;;;;;;;6.67;5.50;;;;;;;;;;6250200;23;20430;-88
2024/02/11 03:51:48;;;;;;;6.00;5.17;;;;;;;;;;6222652;23;20428;-88
2024/02/11 03:54:51;;;;;;;5.77;5.00;;;;;;;;;;6221454;23;20395;-88
2024/02/11 03:57:51;;;;;;;6.23;4.80;;;;;;;;;;6226608;23;20528;-87
2024/02/11 04:00:48;;;;;;;5.40;5.00;;;;;;;;;;6221372;23;20452;-88
2024/02/11 04:06:34;;;;;;;5.93;5.30;;;;;;;;;;6176777;23;20482;-89
2024/02/11 04:09:28;;;;;;;5.13;4.63;;;;;;;;;;6225742;23;20401;-89
2024/02/11 04:15:27;;;;;;;6.03;5.43;;;;;;;;;;6247096;23;20360;-88
2024/02/11 04:18:32;;;;;;;6.37;5.00;;;;;;;;;;6175869;23;20419;-89
2024/02/11 04:21:09;;;;;;;6.93;5.27;;;;;;;;;;6229164;23;20489;-88
2024/02/11 04:23:52;;;;;;;6.43;5.83;;;;;;;;;;6225978;23;20473;-88
2024/02/11 04:26:46;;;;;;;5.97;5.37;;;;;;;;;;6237703;23;20408;-88
2024/02/11 04:29:39;;;;;;;6.57;5.57;;;;;;;;;;6196766;23;20407;-88
2024/02/11 04:32:28;;;;;;;6.03;5.43;;;;;;;;;;6224416;23;20459;-88
2024/02/11 04:35:00;;;;;;;5.30;4.87;;;;;;;;;;6223893;23;20409;-88
2024/02/11 04:37:59;;;;;;;7.60;5.47;;;;;;;;;;6224711;23;20599;-88
2024/02/11 04:41:01;;;;;;;6.43;5.57;;;;;;;;;;6223087;23;20458;-87
2024/02/11 04:44:39;;;;;;;7.00;5.67;;;;;;;;;;6214135;23;20431;-89
2024/02/11 04:47:40;;;;;;;7.50;6.07;;;;;;;;;;6223796;23;20492;-89
2024/02/11 04:50:40;;;;;;;5.20;4.70;;;;;;;;;;6178871;23;20478;-88
2024/02/11 04:53:44;;;;;;;6.80;5.83;;;;;;;;;;6228322;23;20503;-89
2024/02/11 04:56:28;;;;;;;5.47;4.20;;;;;;;;;;6248698;23;20419;-88
2024/02/11 04:59:04;;;;;;;7.00;4.80;;;;;;;;;;6222195;23;20479;-88
2024/02/11 05:05:19;;;;;;;4.23;3.83;;;;;;;;;;6251611;23;20418;-89
2024/02/11 05:11:50;;;;;;;3.30;3.00;;;;;;;;;;6239968;23;20445;-88
2024/02/11 05:14:49;;;;;;;3.13;2.63;;;;;;;;;;6225988;23;20765;-88
2024/02/11 05:17:44;;;;;;;2.40;2.20;;;;;;;;;;6241005;23;20405;-88
2024/02/11 05:20:40;;;;;;;1.73;1.60;;;;;;;;;;6269824;23;20478;-88
2024/02/11 05:23:41;;;;;;;1.30;1.30;;;;;;;;;;6206237;23;20413;-87
2024/02/11 05:26:21;;;;;;;1.73;0.80;;;;;;;;;;6229376;23;20412;-87
2024/02/11 05:29:26;;;;;;;0.70;0.70;;;;;;;;;;6229716;23;20424;-87
2024/02/11 05:35:53;;;;;;;0.57;0.50;;;;;;;;;;6250321;23;20957;-88
2024/02/11 05:38:47;;;;;;;3.37;0.70;;;;;;;;;;6228682;23;20408;-87
2024/02/11 05:41:31;;;;;;;1.00;0.57;;;;;;;;;;6240280;23;20483;-88
2024/02/11 05:44:33;;;;;;;2.30;1.10;;;;;;;;;;6238230;23;20431;-88
2024/02/11 05:47:32;;;;;;;0.93;0.70;;;;;;;;;;6228406;23;20416;-87
2024/02/11 05:50:27;;;;;;;1.20;1.10;;;;;;;;;;6202782;23;20412;-88
2024/02/11 05:57:18;;;;;;;3.63;1.00;;;;;;;;;;6099142;23;20447;-88
2024/02/11 06:00:12;;;;;;;3.03;1.10;;;;;;;;;;6096726;23;20451;-88
2024/02/11 06:06:20;;;;;;;3.53;1.20;;;;;;;;;;6248354;23;20401;-87
2024/02/11 06:09:14;;;;;;;3.73;1.10;;;;;;;;;;6225257;23;20412;-89
2024/02/11 06:12:12;;;;;;;2.70;1.17;;;;;;;;;;6228789;23;20360;-89
2024/02/11 06:15:20;;;;;;;3.03;1.20;;;;;;;;;;6227661;23;20461;-89
2024/02/11 06:18:11;;;;;;;3.90;1.73;;;;;;;;;;6225146;23;20376;-88
2024/02/11 06:21:05;;;;;;;3.27;1.60;;;;;;;;;;6193811;23;20512;-88
2024/02/11 06:23:52;;;;;;;7.47;1.30;;;;;;;;;;6219894;23;20902;-89
2024/02/11 06:29:54;;;;;;;2.63;1.23;;;;;;;;;;6218165;23;20523;-89
2024/02/11 06:32:59;;;;;;;2.07;1.53;;;;;;;;;;6078741;23;20904;-88
2024/02/11 06:36:00;;;;;;;2.93;1.60;;;;;;;;;;6098522;23;20413;-89
2024/02/11 06:39:10;;;;;;;5.90;1.60;;;;;;;;;;6096930;23;20409;-88
2024/02/11 06:42:09;;;;;;;4.90;2.07;;;;;;;;;;6097120;23;20447;-89
2024/02/11 06:45:01;;;;;;;6.80;2.23;;;;;;;;;;6096080;23;20403;-88
2024/02/11 06:47:54;;;;;;;5.20;2.07;;;;;;;;;;6082841;23;20436;-87
2024/02/11 06:50:40;;;;;;;5.60;2.07;;;;;;;;;;6097600;23;20440;-88
2024/02/11 06:53:49;;;;;;;6.30;1.80;;;;;;;;;;6026494;23;20411;-87
2024/02/11 06:56:29;;;;;;;6.67;2.43;;;;;;;;;;6096559;23;20456;-88
2024/02/11 06:59:18;;;;;;;5.30;2.00;;;;;;;;;;6096638;23;20864;-88
2024/02/11 07:02:35;;;;;;;6.20;2.23;;;;;;;;;;6097386;23;20417;-88
2024/02/11 07:05:44;;;;;;;5.03;1.90;;;;;;;;;;6096585;23;20417;-87
2024/02/11 07:12:06;;;;;;;7.30;2.90;;;;;;;;;;6229094;23;20875;-89
2024/02/11 07:15:04;;;;;;;4.47;2.10;;;;;;;;;;6228450;23;20480;-89
2024/02/11 07:17:53;;;;;;;5.57;2.47;;;;;;;;;;6226756;23;20419;-88
2024/02/11 07:20:34;;;;;;;5.00;1.97;;;;;;;;;;6225452;23;20458;-88
2024/02/11 07:23:39;;;;;;;;;;;;;;;;;;;;;
2024/02/11 07:26:25;;;;;;;3.67;2.17;;;;;;;;;;6248111;23;20518;-88
2024/02/11 07:29:04;;;;;;;4.50;2.50;;;;;;;;;;6227255;23;20953;-88
2024/02/11 07:31:45;;;;;;;3.53;2.03;;;;;;;;;;6225824;23;20427;-88
2024/02/11 07:34:50;;;;;;;5.60;2.40;;;;;;;;;;6188725;23;20425;-87
2024/02/11 07:37:58;;;;;;;5.00;2.60;;;;;;;;;;6228095;23;20412;-87
2024/02/11 07:40:53;;;;;;;5.80;2.30;;;;;;;;;;6142466;23;20468;-87
2024/02/11 07:44:23;;;;;;;5.20;2.10;;;;;;;;;;6159971;23;20613;-87
2024/02/11 07:47:02;;;;;;;2.87;1.77;;;;;;;;;;6235492;23;20433;-87
2024/02/11 07:49:51;;;;;;;8.00;2.80;;;;;;;;;;6223999;23;20511;-88
2024/02/11 07:52:48;;;;;;;3.23;1.77;;;;;;;;;;6227352;23;20411;-88
2024/02/11 07:55:57;;;;;;;4.13;2.60;;;;;;;;;;6229305;23;20380;-88
2024/02/11 08:02:19;;;;;;;3.97;2.50;;;;;;;;;;6244618;23;20415;-87
2024/02/11 08:05:30;;;;;;;7.10;2.37;;;;;;;;;;6233547;23;20439;-88
2024/02/11 08:08:09;;;;;;;2.50;2.13;;;;;;;;;;6227687;23;20422;-88
2024/02/11 08:10:57;;;;;;;3.60;2.47;;;;;;;;;;6228627;23;20453;-89
2024/02/11 08:20:40;;;;;;;5.77;2.50;;;;;;;;;;6202603;22;20432;-89
2024/02/11 08:23:41;;;;;;;4.23;2.70;;;;;;;;;;6119080;23;20412;-88
2024/02/11 08:26:25;;;;;;;4.67;2.10;;;;;;;;;;6138648;23;20405;-90
2024/02/11 08:29:24;;;;;;;6.03;2.53;;;;;;;;;;6151204;23;20466;-90
2024/02/11 08:32:30;;;;;;;4.00;2.03;;;;;;;;;;6140059;23;20457;-89
2024/02/11 08:35:47;;;;;;;5.17;2.63;;;;;;;;;;6226710;22;20445;-88
2024/02/11 08:38:45;;;;;;;8.93;2.60;;;;;;;;;;6217988;23;20410;-88
2024/02/11 08:44:47;;;;;;;4.50;3.00;;;;;;;;;;6164876;23;20429;-87
2024/02/11 08:47:38;;;;;;;3.47;2.80;;;;;;;;;;6138964;23;20510;-88
2024/02/11 08:50:43;;;;;;;5.67;3.03;;;;;;;;;;6062870;23;20433;-89
2024/02/11 08:54:05;;;;;;;5.30;3.30;;;;;;;;;;6153946;23;20406;-88
2024/02/11 08:57:10;;;;;;;3.57;2.47;;;;;;;;;;6192546;23;20394;-89
2024/02/11 09:00:14;;;;;;;5.17;2.50;;;;;;;;;;6193199;23;20491;-88
2024/02/11 09:03:27;;;;;;;4.87;3.17;;;;;;;;;;6174139;23;20425;-87
2024/02/11 09:05:56;;;;;;;4.10;3.20;;;;;;;;;;6205277;23;20433;-89
2024/02/11 09:08:56;;;;;;;;;;;;;;;;;;;;;
2024/02/11 09:11:41;;;;;;;4.13;2.93;;;;;;;;;;6200269;23;20421;-87
2024/02/11 09:14:32;;;;;;;3.70;2.77;;;;;;;;;;6152652;23;20485;-89
2024/02/11 09:17:17;;;;;;;3.07;2.60;;;;;;;;;;6170369;23;20399;-88
2024/02/11 09:20:08;;;;;;;6.03;2.93;;;;;;;;;;6170430;23;20924;-89
2024/02/11 09:22:57;;;;;;;4.30;2.83;;;;;;;;;;6145618;23;20406;-87
2024/02/11 09:26:13;;;;;;;3.80;2.50;;;;;;;;;;6170391;23;20706;-87
2024/02/11 09:31:35;;;;;;;5.93;2.97;;;;;;;;;;6186328;23;20569;-88
2024/02/11 09:34:42;;;;;;;4.33;2.87;;;;;;;;;;6170570;23;20373;-89
2024/02/11 09:37:48;;;;;;;;;;;;;;;;;;;;;
2024/02/11 09:43:41;;;;;;;4.27;3.17;;;;;;;;;;6146639;23;20470;-88
2024/02/11 09:46:40;;;;;;;4.90;3.30;;;;;;;;;;6103921;23;20414;-88
2024/02/11 09:49:46;;;;;;;4.17;2.97;;;;;;;;;;6170124;23;20423;-87
2024/02/11 09:52:24;;;;;;;6.30;3.57;;;;;;;;;;6166289;23;20420;-88
2024/02/11 09:55:22;;;;;;;;;;;;;;;;;;;;;
2024/02/11 09:58:12;;;;;;;3.97;3.10;;;;;;;;;;6190694;23;20441;-88
2024/02/11 10:00:57;;;;;;;6.17;4.27;;;;;;;;;;6165802;23;20471;-89
2024/02/11 10:03:41;;;;;;;4.50;2.93;;;;;;;;;;6168010;23;20438;-88
2024/02/11 10:06:20;;;;;;;5.33;2.83;;;;;;;;;;6167669;23;20410;-87
2024/02/11 10:09:04;;;;;;;6.00;2.80;;;;;;;;;;6161324;23;20418;-89
2024/02/11 10:11:47;;;;;;;4.90;3.70;;;;;;;;;;6163932;23;20420;-88
2024/02/11 10:14:15;;;;;;;5.63;3.53;;;;;;;;;;6140344;23;20415;-89
2024/02/11 10:20:04;;;;;;;3.50;2.80;;;;;;;;;;6190096;23;20480;-88
2024/02/11 10:22:42;;;;;;;4.50;3.40;;;;;;;;;;6167028;23;20447;-87
2024/02/11 10:25:41;;;;;;;3.73;3.03;;;;;;;;;;6175502;23;20408;-89
2024/02/11 10:28:39;;;;;;;3.80;3.50;;;;;;;;;;6182255;23;20418;-90
2024/02/11 10:31:22;;;;;;;5.27;3.20;;;;;;;;;;6183065;23;20426;-88
2024/02/11 10:37:06;;;;;;;6.40;3.60;;;;;;;;;;6193700;23;20406;-89
2024/02/11 10:40:08;;;;;;;4.63;3.30;;;;;;;;;;6165336;23;20549;-89
2024/02/11 10:42:50;;;;;;;6.30;3.87;;;;;;;;;;6163726;23;20461;-88
2024/02/11 10:45:32;;;;;;;3.67;3.17;;;;;;;;;;6162913;23;20428;-90
2024/02/11 10:48:32;;;;;;;8.67;3.63;;;;;;;;;;6159839;23;20430;-88
2024/02/11 10:52:17;;;;;;;;;;;;;;;;;;;;;
2024/02/11 10:55:32;;;;;;;4.20;3.70;;;;;;;;;;6019083;23;20408;-89
2024/02/11 11:02:02;;;;;;;5.47;3.07;;;;;;;;;;6196337;22;20461;-89
2024/02/11 11:05:03;;;;;;;4.60;3.67;;;;;;;;;;6200253;23;20414;-88
2024/02/11 11:08:11;;;;;;;5.57;3.97;;;;;;;;;;6193133;23;20405;-89
2024/02/11 11:11:05;;;;;;;4.90;3.90;;;;;;;;;;6197206;23;20430;-88
2024/02/11 11:14:27;;;;;;;3.83;3.43;;;;;;;;;;6201101;23;20484;-88
2024/02/11 11:17:26;;;;;;;3.53;3.10;;;;;;;;;;6198161;23;20992;-88
2024/02/11 11:20:58;;;;;;;7.23;3.30;;;;;;;;;;6173252;23;20452;-88
2024/02/11 11:24:24;;;;;;;5.47;3.70;;;;;;;;;;6114441;23;20405;-88
2024/02/11 11:27:19;;;;;;;5.33;4.83;;;;;;;;;;6208514;23;20388;-90
2024/02/11 11:33:10;;;;;;;4.63;4.23;;;;;;;;;;6224817;23;20409;-89
2024/02/11 11:35:47;;;;;;;4.17;3.30;;;;;;;;;;6199620;23;20426;-87
2024/02/11 11:46:29;;;;;;;3.50;2.90;;;;;;;;;;6055853;23;20436;-88
2024/02/11 11:49:36;;;;;;;2.83;2.30;;;;;;;;;;6143981;23;20415;-88
2024/02/11 11:56:00;;;;;;;2.50;2.10;;;;;;;;;;6199626;23;20417;-88
2024/02/11 11:59:03;;;;;;;;;;;;;;;;;;;;;
2024/02/11 12:02:17;;;;;;;;;;;;;;;;;;;;;
2024/02/11 12:05:29;;;;;;;2.03;1.80;;;;;;;;;;6130591;23;20427;-85
2024/02/11 12:12:06;;;;;;;3.57;2.00;;;;;;;;;;6129780;23;20355;-88
2024/02/11 12:15:08;;;;;;;;;;;;;;;;;;;;;
2024/02/11 12:17:57;;;;;;;2.20;2.00;;;;;;;;;;6140204;23;20411;-89
2024/02/11 12:21:10;;;;;;;2.40;2.20;;;;;;;;;;6107979;23;20463;-88
2024/02/11 12:24:18;;;;;;;3.67;2.50;;;;;;;;;;6044811;23;20399;-88
2024/02/11 12:30:39;;;;;;;2.20;2.00;;;;;;;;;;6084307;23;20426;-89
2024/02/11 12:33:50;;;;;;;;;;;;;;;;;;;;;
2024/02/11 12:36:32;;;;;;;3.03;2.03;;;;;;;;;;6129324;23;20417;-88
2024/02/11 12:40:00;;;;;;;3.40;2.20;;;;;;;;;;6058388;23;20930;-88
2024/02/11 12:46:38;;;;;;;3.10;1.87;;;;;;;;;;6077972;23;20545;-90
2024/02/11 12:49:38;;;;;;;2.03;1.80;;;;;;;;;;6149353;23;20897;-90
2024/02/11 12:52:32;;;;;;;1.80;1.70;;;;;;;;;;6200319;23;20417;-87
2024/02/11 12:55:32;;;;;;;3.00;2.17;;;;;;;;;;6081465;23;20817;-88
2024/02/11 13:01:44;;;;;;;1.77;1.67;;;;;;;;;;6103148;23;20453;-87
2024/02/11 13:05:13;;;;;;;2.33;1.63;;;;;;;;;;6080255;23;20421;-88
2024/02/11 13:08:16;;;;;;;1.60;1.50;;;;;;;;;;6048520;23;20432;-90
2024/02/11 13:11:39;;;;;;;2.20;1.53;;;;;;;;;;6084341;23;20420;-88
2024/02/11 13:14:36;;;;;;;1.67;1.00;;;;;;;;;;6085108;23;20393;-86
2024/02/11 13:17:30;;;;;;;2.07;1.30;;;;;;;;;;6093871;23;20410;-86
2024/02/11 13:20:53;;;;;;;2.07;1.00;;;;;;;;;;6217403;23;20445;-85
2024/02/11 13:23:37;;;;;;;1.57;1.20;;;;;;;;;;6216167;23;20413;-89
2024/02/11 13:26:15;;;;;;;2.73;1.00;;;;;;;;;;6215968;23;20412;-88
2024/02/11 13:32:41;;;;;;;1.20;1.10;;;;;;;;;;6239136;23;20369;-88
2024/02/11 13:39:30;;;;;;;1.13;0.90;;;;;;;;;;6242530;23;20417;-88
2024/02/11 13:42:15;;;;;;;0.97;0.63;;;;;;;;;;6186156;23;20477;-89
2024/02/11 13:45:14;;;;;;;0.77;0.70;;;;;;;;;;6200842;23;20479;-88
2024/02/11 13:48:27;;;;;;;0.83;0.70;;;;;;;;;;6168194;23;20397;-90
2024/02/11 13:54:49;;;;;;;1.53;1.30;;;;;;;;;;6071956;23;20418;-87
2024/02/11 14:04:44;;;;;;;4.00;2.20;;;;;;;;;;6093320;23;20445;-89
2024/02/11 14:14:37;;;;;;;;;;;;;;;;;;;;;
2024/02/11 14:17:48;;;;;;;1.00;0.90;;;;;;;;;;6223002;23;20444;-87
2024/02/11 14:20:57;;;;;;;2.00;0.77;;;;;;;;;;6099993;23;20437;-87
2024/02/11 14:27:09;;;;;;;1.23;0.70;;;;;;;;;;6016174;23;20442;-88
2024/02/11 14:30:14;;;;;;;1.37;1.00;;;;;;;;;;6015494;23;20963;-87
2024/02/11 14:33:12;;;;;;;0.70;0.60;;;;;;;;;;6014734;23;20428;-88
2024/02/11 14:36:06;;;;;;;1.50;0.80;;;;;;;;;;5995541;23;20412;-88
2024/02/11 14:39:28;;;;;;;;;;;;;;;;;;;;;
2024/02/11 14:42:31;;;;;;;1.10;0.93;;;;;;;;;;5976940;23;20794;-88
2024/02/11 14:45:30;;;;;;;13.77;2.53;;;;;;;;;;5986505;23;20492;-87
2024/02/11 14:55:19;;;;;;;;;;;;;;;;;;;;;
2024/02/11 14:58:26;;;;;;;;;;;;;;;;;;;;;
2024/02/11 15:08:08;;;;;;;;;;;;;;;;;;;;;
2024/02/11 15:14:14;;;;;;;1.33;0.80;;;;;;;;;;6088340;23;20397;-88
2024/02/11 15:17:01;;;;;;;1.93;0.60;;;;;;;;;;6144127;23;20408;-88
2024/02/11 15:19:48;;;;;;;3.00;1.50;;;;;;;;;;6202173;23;20760;-87
2024/02/11 15:26:05;;;;;;;1.77;1.40;;;;;;;;;;6098496;23;20465;-88
2024/02/11 15:29:01;;;;;;;1.60;1.50;;;;;;;;;;6079439;23;20413;-87
2024/02/11 15:31:44;;;;;;;3.10;1.97;;;;;;;;;;6071315;23;20437;-88
2024/02/11 15:34:54;;;;;;;3.63;2.20;;;;;;;;;;6029029;23;20397;-88
2024/02/11 15:37:40;;;;;;;3.20;1.87;;;;;;;;;;6042224;23;20414;-87
2024/02/11 15:43:56;;;;;;;;;;;;;;;;;;;;;
2024/02/11 15:46:59;;;;;;;2.50;1.50;;;;;;;;;;6151719;23;20430;-90
2024/02/11 15:50:15;;;;;;;2.27;1.47;;;;;;;;;;6163222;23;20420;-88
2024/02/11 15:53:09;;;;;;;3.13;2.13;;;;;;;;;;6106388;23;20500;-88
2024/02/11 15:55:45;;;;;;;5.50;2.60;;;;;;;;;;6129516;23;20490;-88
2024/02/11 16:05:14;;;;;;;2.10;1.40;;;;;;;;;;6072005;23;21128;-89
2024/02/11 16:08:11;;;;;;;2.10;1.23;;;;;;;;;;6128188;23;20444;-88
2024/02/11 16:11:05;;;;;;;1.27;0.87;;;;;;;;;;6121721;23;20623;-88
2024/02/11 16:13:52;;;;;;;1.10;1.00;;;;;;;;;;6125819;23;20400;-88
2024/02/11 16:23:47;;;;;;;1.73;1.07;;;;;;;;;;6126230;23;20400;-88
2024/02/11 16:26:51;;;;;;;2.20;1.10;;;;;;;;;;6106497;23;20399;-89
2024/02/11 16:34:02;;;;;;;1.37;0.73;;;;;;;;;;5977837;23;20471;-87
2024/02/11 16:36:49;;;;;;;2.10;1.10;;;;;;;;;;5983844;23;21064;-88
2024/02/11 16:46:16;;;;;;;1.80;0.90;;;;;;;;;;6127996;23;20488;-88
2024/02/11 17:03:20;;;;;;;1.27;0.70;;;;;;;;;;6189019;23;20474;-88
2024/02/11 17:29:01;;;;;;;1.20;1.10;;;;;;;;;;6228740;23;20393;-89
2024/02/11 17:32:12;;;;;;;2.40;1.43;;;;;;;;;;6077224;23;20731;-89
2024/02/11 17:42:41;;;;;;;2.67;1.70;;;;;;;;;;5998821;24;20444;-88
2024/02/11 18:04:57;;;;;;;;;;;;;;;;;;;;;
2024/02/11 18:08:31;;;;;;;2.70;2.50;;;;;;;;;;6072436;23;20393;-88
2024/02/11 18:25:02;;;;;;;3.03;1.90;;;;;;;;;;6207884;23;20425;-90
2024/02/11 18:38:34;;;;;;;1.60;1.27;;;;;;;;;;6083556;23;20409;-87
2024/02/11 18:41:49;;;;;;;2.10;1.30;;;;;;;;;;6083808;23;20440;-89
2024/02/11 18:44:54;;;;;;;1.60;1.50;;;;;;;;;;6076209;23;20535;-88
2024/02/11 18:48:22;;;;;;;4.10;1.50;;;;;;;;;;6078348;23;20448;-89
2024/02/11 18:55:19;;;;;;;1.90;1.63;;;;;;;;;;6100713;23;20446;-89
2024/02/11 18:58:13;;;;;;;2.33;1.60;;;;;;;;;;6086860;23;20469;-88
2024/02/11 19:04:03;;;;;;;;;;;;;;;;;;;;;
2024/02/11 19:07:04;;;;;;;1.43;0.93;;;;;;;;;;6197443;23;20489;-88
2024/02/11 19:10:20;;;;;;;2.50;0.93;;;;;;;;;;6169204;23;20426;-86
2024/02/11 19:13:21;;;;;;;1.07;0.90;;;;;;;;;;6142525;23;20900;-87
2024/02/11 19:19:34;;;;;;;1.53;0.87;;;;;;;;;;6063355;23;20393;-88
2024/02/11 19:22:50;;;;;;;1.30;0.80;;;;;;;;;;6105597;23;20454;-88
2024/02/11 19:25:51;;;;;;;1.20;0.63;;;;;;;;;;6163725;23;20772;-88
2024/02/11 19:29:05;;;;;;;1.03;0.70;;;;;;;;;;6124103;23;20433;-88
2024/02/11 19:35:46;;;;;;;1.43;0.70;;;;;;;;;;6050185;23;20474;-88
2024/02/11 19:41:57;;;;;;;;;;;;;;;;;;;;;
2024/02/11 19:48:42;;;;;;;1.50;1.00;;;;;;;;;;6047912;23;20418;-88
2024/02/11 19:51:21;;;;;;;1.70;0.73;;;;;;;;;;6049279;23;20466;-88
2024/02/11 19:54:16;;;;;;;2.10;0.87;;;;;;;;;;6115922;23;20481;-88
2024/02/11 19:57:08;;;;;;;2.07;1.10;;;;;;;;;;6174137;23;20869;-88
2024/02/11 20:00:21;;;;;;;1.60;1.00;;;;;;;;;;6096038;23;20440;-89
2024/02/11 20:20:55;;;;;;;0.77;0.77;;;;;;;;;;6085016;23;20420;-88
2024/02/11 20:24:09;;;;;;;1.37;1.10;;;;;;;;;;6122521;23;20505;-89
2024/02/11 20:27:18;;;;;;;2.70;1.67;;;;;;;;;;6046964;23;20398;-88
2024/02/11 20:33:40;;;;;;;;;;;;;;;;;;;;;
2024/02/11 20:36:48;;;;;;;1.10;1.00;;;;;;;;;;6007186;23;20405;-90
2024/02/11 20:52:58;;;;;;;1.33;1.10;;;;;;;;;;6053484;23;20466;-88
2024/02/11 20:56:06;;;;;;;1.07;1.00;;;;;;;;;;6111400;23;20560;-89
2024/02/11 21:02:23;;;;;;;;;;;;;;;;;;;;;
2024/02/11 21:09:02;;;;;;;0.90;0.90;;;;;;;;;;6106902;23;20353;-89
2024/02/11 21:12:25;;;;;;;;;;;;;;;;;;;;;
2024/02/11 21:22:35;;;;;;;2.80;1.17;;;;;;;;;;5940278;24;20638;-88
2024/02/11 21:25:34;;;;;;;1.50;1.20;;;;;;;;;;5910639;24;20437;-88
2024/02/11 21:50:52;;;;;;;1.57;1.00;;;;;;;;;;6225632;23;20459;-88
2024/02/11 21:57:37;;;;;;;2.53;1.40;;;;;;;;;;6244048;23;20416;-88
2024/02/11 22:15:07;;;;;;;;;;;;;;;;;;;;;
2024/02/11 22:21:13;;;;;;;4.60;1.60;;;;;;;;;;6122381;23;20430;-84
2024/02/11 22:24:05;;;;;;;1.97;1.50;;;;;;;;;;6081703;23;20399;-87
2024/02/11 22:27:19;;;;;;;;;;;;;;;;;;;;;
2024/02/11 22:30:19;;;;;;;2.40;1.70;;;;;;;;;;6152254;23;20767;-88
2024/02/11 22:33:26;;;;;;;;;;;;;;;;;;;;;
2024/02/11 22:40:00;;;;;;;1.30;1.20;;;;;;;;;;6149341;23;20516;-89
2024/02/11 22:43:22;;;;;;;4.80;1.70;;;;;;;;;;6074856;23;20441;-88
2024/02/11 22:46:16;;;;;;;2.63;2.53;;;;;;;;;;6129736;23;20451;-87
2024/02/11 22:49:44;;;;;;;2.20;1.60;;;;;;;;;;6227567;23;20404;-88
2024/02/11 22:53:00;;;;;;;1.77;1.60;;;;;;;;;;6082528;23;20417;-88
2024/02/11 22:56:44;;;;;;;2.40;1.60;;;;;;;;;;6090319;23;20410;-87
2024/02/11 23:02:37;;;;;;;4.37;1.60;;;;;;;;;;6223424;23;20453;-87
2024/02/11 23:05:41;;;;;;;1.70;1.57;;;;;;;;;;6178162;23;20406;-88
2024/02/11 23:12:26;;;;;;;2.80;1.97;;;;;;;;;;6104891;23;20420;-88
2024/02/11 23:23:45;;;;;;;2.70;1.97;;;;;;;;;;6213206;22;20423;-88
2024/02/11 23:43:53;;;;;;;1.63;1.53;;;;;;;;;;6047328;23;20482;-87
2024/02/11 23:59:10;;;;;;;1.43;1.30;;;;;;;;;;6197992;23;20374;-87
